sensor_id;sensor_type;location;lat;lon;timestamp;temperature;humidity
19610;DHT22;9952;47.122;-1.638;2022-10-16T00:02:15;15.20;99.90
19610;DHT22;9952;47.122;-1.638;2022-10-16T00:06:56;15.20;99.90
19610;DHT22;9952;47.122;-1.638;2022-10-16T00:11:39;15.30;99.90
19610;DHT22;9952;47.122;-1.638;2022-10-16T00:16:20;15.30;99.90
19610;DHT22;9952;47.122;-1.638;2022-10-16T00:21:07;15.30;99.90
19610;DHT22;9952;47.122;-1.638;2022-10-16T00:25:59;15.30;99.90
19610;DHT22;9952;47.122;-1.638;2022-10-16T00:30:41;15.30;99.90
19610;DHT22;9952;47.122;-1.638;2022-10-16T00:35:21;15.30;99.90
19610;DHT22;9952;47.122;-1.638;2022-10-16T00:40:02;15.30;99.90
19610;DHT22;9952;47.122;-1.638;2022-10-16T00:44:53;15.30;99.90
19610;DHT22;9952;47.122;-1.638;2022-10-16T00:49:36;15.30;99.90
19610;DHT22;9952;47.122;-1.638;2022-10-16T00:54:23;15.30;99.90
19610;DHT22;9952;47.122;-1.638;2022-10-16T00:59:10;15.30;99.90
19610;DHT22;9952;47.122;-1.638;2022-10-16T01:03:53;15.20;99.90
19610;DHT22;9952;47.122;-1.638;2022-10-16T01:08:43;15.30;99.90
19610;DHT22;9952;47.122;-1.638;2022-10-16T01:13:29;15.30;99.90
19610;DHT22;9952;47.122;-1.638;2022-10-16T01:27:55;15.30;99.90
19610;DHT22;9952;47.122;-1.638;2022-10-16T01:37:44;15.20;99.90
19610;DHT22;9952;47.122;-1.638;2022-10-16T01:42:36;15.20;99.90
19610;DHT22;9952;47.122;-1.638;2022-10-16T01:47:21;15.20;99.90
19610;DHT22;9952;47.122;-1.638;2022-10-16T01:52:06;15.20;99.90
19610;DHT22;9952;47.122;-1.638;2022-10-16T01:56:49;15.20;99.90
19610;DHT22;9952;47.122;-1.638;2022-10-16T02:01:33;15.20;99.90
19610;DHT22;9952;47.122;-1.638;2022-10-16T02:06:14;15.30;99.90
19610;DHT22;9952;47.122;-1.638;2022-10-16T02:10:55;15.30;99.90
19610;DHT22;9952;47.122;-1.638;2022-10-16T02:15:37;15.30;99.90
19610;DHT22;9952;47.122;-1.638;2022-10-16T02:20:20;15.30;99.90
19610;DHT22;9952;47.122;-1.638;2022-10-16T02:25:08;15.30;99.90
19610;DHT22;9952;47.122;-1.638;2022-10-16T02:29:56;15.30;99.90
19610;DHT22;9952;47.122;-1.638;2022-10-16T02:34:39;15.30;99.90
19610;DHT22;9952;47.122;-1.638;2022-10-16T02:39:21;15.30;99.90
19610;DHT22;9952;47.122;-1.638;2022-10-16T02:44:02;15.30;99.90
19610;DHT22;9952;47.122;-1.638;2022-10-16T02:48:43;15.30;99.90
19610;DHT22;9952;47.122;-1.638;2022-10-16T02:53:24;15.30;99.90
19610;DHT22;9952;47.122;-1.638;2022-10-16T02:58:04;15.40;99.90
19610;DHT22;9952;47.122;-1.638;2022-10-16T03:02:45;15.40;99.90
19610;DHT22;9952;47.122;-1.638;2022-10-16T03:07:27;15.40;99.90
19610;DHT22;9952;47.122;-1.638;2022-10-16T03:12:07;15.40;99.90
19610;DHT22;9952;47.122;-1.638;2022-10-16T03:16:48;15.40;99.90
19610;DHT22;9952;47.122;-1.638;2022-10-16T03:21:29;15.40;99.90
19610;DHT22;9952;47.122;-1.638;2022-10-16T03:26:10;15.40;99.90
19610;DHT22;9952;47.122;-1.638;2022-10-16T03:30:50;15.30;99.90
19610;DHT22;9952;47.122;-1.638;2022-10-16T03:35:32;15.30;99.90
19610;DHT22;9952;47.122;-1.638;2022-10-16T03:40:13;15.30;99.90
19610;DHT22;9952;47.122;-1.638;2022-10-16T03:44:54;15.30;99.90
19610;DHT22;9952;47.122;-1.638;2022-10-16T03:49:35;15.20;99.90
19610;DHT22;9952;47.122;-1.638;2022-10-16T03:54:16;15.20;99.90
19610;DHT22;9952;47.122;-1.638;2022-10-16T03:58:57;15.20;99.90
19610;DHT22;9952;47.122;-1.638;2022-10-16T04:03:37;15.20;99.90
19610;DHT22;9952;47.122;-1.638;2022-10-16T04:08:18;15.20;99.90
19610;DHT22;9952;47.122;-1.638;2022-10-16T04:13:00;15.20;99.90
19610;DHT22;9952;47.122;-1.638;2022-10-16T04:17:41;15.20;99.90
19610;DHT22;9952;47.122;-1.638;2022-10-16T04:22:21;15.20;99.90
19610;DHT22;9952;47.122;-1.638;2022-10-16T04:27:02;15.20;99.90
19610;DHT22;9952;47.122;-1.638;2022-10-16T04:31:43;15.20;99.90
19610;DHT22;9952;47.122;-1.638;2022-10-16T04:36:24;15.10;99.90
19610;DHT22;9952;47.122;-1.638;2022-10-16T04:41:06;15.10;99.90
19610;DHT22;9952;47.122;-1.638;2022-10-16T04:45:46;15.10;99.90
19610;DHT22;9952;47.122;-1.638;2022-10-16T04:50:27;15.10;99.90
19610;DHT22;9952;47.122;-1.638;2022-10-16T04:55:08;15.10;99.90
19610;DHT22;9952;47.122;-1.638;2022-10-16T04:59:49;15.10;99.90
19610;DHT22;9952;47.122;-1.638;2022-10-16T05:04:30;15.10;99.90
19610;DHT22;9952;47.122;-1.638;2022-10-16T05:09:11;15.20;99.90
19610;DHT22;9952;47.122;-1.638;2022-10-16T05:13:51;15.10;99.90
19610;DHT22;9952;47.122;-1.638;2022-10-16T05:18:32;15.10;99.90
19610;DHT22;9952;47.122;-1.638;2022-10-16T05:23:13;15.10;99.90
19610;DHT22;9952;47.122;-1.638;2022-10-16T05:27:54;15.10;99.90
19610;DHT22;9952;47.122;-1.638;2022-10-16T05:32:34;15.00;99.90
19610;DHT22;9952;47.122;-1.638;2022-10-16T05:37:15;15.00;99.90
19610;DHT22;9952;47.122;-1.638;2022-10-16T05:41:56;15.00;99.90
19610;DHT22;9952;47.122;-1.638;2022-10-16T05:46:37;15.00;99.90
19610;DHT22;9952;47.122;-1.638;2022-10-16T05:51:18;15.00;99.90
19610;DHT22;9952;47.122;-1.638;2022-10-16T05:55:59;15.00;99.90
19610;DHT22;9952;47.122;-1.638;2022-10-16T06:00:39;15.00;99.90
19610;DHT22;9952;47.122;-1.638;2022-10-16T06:05:20;15.00;99.90
19610;DHT22;9952;47.122;-1.638;2022-10-16T06:10:01;15.00;99.90
19610;DHT22;9952;47.122;-1.638;2022-10-16T06:14:43;15.00;99.90
19610;DHT22;9952;47.122;-1.638;2022-10-16T06:19:24;15.00;99.90
19610;DHT22;9952;47.122;-1.638;2022-10-16T06:24:05;14.90;99.90
19610;DHT22;9952;47.122;-1.638;2022-10-16T06:28:47;14.90;99.90
19610;DHT22;9952;47.122;-1.638;2022-10-16T06:33:27;14.90;99.90
19610;DHT22;9952;47.122;-1.638;2022-10-16T06:38:08;14.90;99.90
19610;DHT22;9952;47.122;-1.638;2022-10-16T06:42:49;14.90;99.90
19610;DHT22;9952;47.122;-1.638;2022-10-16T06:47:32;15.00;99.90
19610;DHT22;9952;47.122;-1.638;2022-10-16T06:52:13;15.00;99.90
19610;DHT22;9952;47.122;-1.638;2022-10-16T06:56:54;15.00;99.90
19610;DHT22;9952;47.122;-1.638;2022-10-16T07:01:35;15.00;99.90
19610;DHT22;9952;47.122;-1.638;2022-10-16T07:06:18;15.10;99.90
19610;DHT22;9952;47.122;-1.638;2022-10-16T07:11:11;15.10;99.90
19610;DHT22;9952;47.122;-1.638;2022-10-16T07:15:52;15.20;99.90
19610;DHT22;9952;47.122;-1.638;2022-10-16T07:20:33;15.20;99.90
19610;DHT22;9952;47.122;-1.638;2022-10-16T07:25:14;15.30;99.90
19610;DHT22;9952;47.122;-1.638;2022-10-16T07:29:54;15.30;99.90
19610;DHT22;9952;47.122;-1.638;2022-10-16T07:34:35;15.50;99.90
19610;DHT22;9952;47.122;-1.638;2022-10-16T07:39:16;15.90;99.90
19610;DHT22;9952;47.122;-1.638;2022-10-16T07:43:57;16.50;99.90
19610;DHT22;9952;47.122;-1.638;2022-10-16T07:48:40;16.90;99.90
19610;DHT22;9952;47.122;-1.638;2022-10-16T07:53:21;17.20;99.90
19610;DHT22;9952;47.122;-1.638;2022-10-16T07:58:02;17.20;99.90
19610;DHT22;9952;47.122;-1.638;2022-10-16T08:02:43;17.20;99.90
19610;DHT22;9952;47.122;-1.638;2022-10-16T08:07:24;17.20;99.90
19610;DHT22;9952;47.122;-1.638;2022-10-16T08:12:05;17.10;99.90
19610;DHT22;9952;47.122;-1.638;2022-10-16T08:16:45;17.10;99.90
19610;DHT22;9952;47.122;-1.638;2022-10-16T08:21:26;17.10;99.90
19610;DHT22;9952;47.122;-1.638;2022-10-16T08:26:16;17.20;99.90
19610;DHT22;9952;47.122;-1.638;2022-10-16T08:31:11;17.40;99.90
19610;DHT22;9952;47.122;-1.638;2022-10-16T08:35:54;17.70;99.90
19610;DHT22;9952;47.122;-1.638;2022-10-16T08:40:37;17.80;99.90
19610;DHT22;9952;47.122;-1.638;2022-10-16T08:45:34;17.80;99.90
19610;DHT22;9952;47.122;-1.638;2022-10-16T08:50:28;17.80;99.90
19610;DHT22;9952;47.122;-1.638;2022-10-16T08:55:31;17.70;99.90
19610;DHT22;9952;47.122;-1.638;2022-10-16T09:00:14;17.50;99.90
19610;DHT22;9952;47.122;-1.638;2022-10-16T09:15:34;17.30;99.90
19610;DHT22;9952;47.122;-1.638;2022-10-16T09:20:26;17.30;99.90
19610;DHT22;9952;47.122;-1.638;2022-10-16T09:25:15;17.30;99.90
19610;DHT22;9952;47.122;-1.638;2022-10-16T09:29:56;17.30;99.90
19610;DHT22;9952;47.122;-1.638;2022-10-16T09:34:41;17.40;99.90
19610;DHT22;9952;47.122;-1.638;2022-10-16T09:39:23;17.50;99.90
19610;DHT22;9952;47.122;-1.638;2022-10-16T09:44:13;17.70;99.90
19610;DHT22;9952;47.122;-1.638;2022-10-16T09:48:58;18.10;99.90
19610;DHT22;9952;47.122;-1.638;2022-10-16T09:53:45;18.60;99.90
19610;DHT22;9952;47.122;-1.638;2022-10-16T09:58:26;19.10;99.90
19610;DHT22;9952;47.122;-1.638;2022-10-16T10:03:10;19.40;99.90
19610;DHT22;9952;47.122;-1.638;2022-10-16T10:07:56;19.40;99.90
19610;DHT22;9952;47.122;-1.638;2022-10-16T10:12:38;19.50;99.90
19610;DHT22;9952;47.122;-1.638;2022-10-16T10:17:21;19.40;99.90
19610;DHT22;9952;47.122;-1.638;2022-10-16T10:22:22;19.50;99.90
19610;DHT22;9952;47.122;-1.638;2022-10-16T10:27:13;19.70;99.90
19610;DHT22;9952;47.122;-1.638;2022-10-16T10:37:11;20.10;99.90
19610;DHT22;9952;47.122;-1.638;2022-10-16T10:42:04;20.50;99.90
19610;DHT22;9952;47.122;-1.638;2022-10-16T11:06:23;22.30;99.90
19610;DHT22;9952;47.122;-1.638;2022-10-16T11:11:25;22.30;99.90
19610;DHT22;9952;47.122;-1.638;2022-10-16T11:21:30;22.60;99.90
19610;DHT22;9952;47.122;-1.638;2022-10-16T11:26:23;22.80;99.90
19610;DHT22;9952;47.122;-1.638;2022-10-16T11:31:14;23.10;99.90
19610;DHT22;9952;47.122;-1.638;2022-10-16T11:36:19;23.20;99.90
19610;DHT22;9952;47.122;-1.638;2022-10-16T11:41:27;23.20;99.90
19610;DHT22;9952;47.122;-1.638;2022-10-16T11:46:15;23.30;99.90
19610;DHT22;9952;47.122;-1.638;2022-10-16T11:55:49;23.70;99.90
19610;DHT22;9952;47.122;-1.638;2022-10-16T12:10:44;23.50;99.90
19610;DHT22;9952;47.122;-1.638;2022-10-16T12:15:31;23.50;99.90
19610;DHT22;9952;47.122;-1.638;2022-10-16T12:20:18;23.60;99.90
19610;DHT22;9952;47.122;-1.638;2022-10-16T12:25:00;23.70;99.90
19610;DHT22;9952;47.122;-1.638;2022-10-16T12:29:42;23.80;99.90
19610;DHT22;9952;47.122;-1.638;2022-10-16T12:34:42;23.70;99.90
19610;DHT22;9952;47.122;-1.638;2022-10-16T12:39:24;23.60;99.90
19610;DHT22;9952;47.122;-1.638;2022-10-16T12:44:20;23.60;99.90
19610;DHT22;9952;47.122;-1.638;2022-10-16T12:59:13;24.10;99.90
19610;DHT22;9952;47.122;-1.638;2022-10-16T13:04:20;24.00;99.90
19610;DHT22;9952;47.122;-1.638;2022-10-16T13:09:25;24.00;99.90
19610;DHT22;9952;47.122;-1.638;2022-10-16T13:19:34;24.10;99.90
19610;DHT22;9952;47.122;-1.638;2022-10-16T13:24:45;24.10;99.90
19610;DHT22;9952;47.122;-1.638;2022-10-16T13:29:34;24.10;99.90
19610;DHT22;9952;47.122;-1.638;2022-10-16T13:34:18;23.90;99.90
19610;DHT22;9952;47.122;-1.638;2022-10-16T13:39:24;23.80;99.90
19610;DHT22;9952;47.122;-1.638;2022-10-16T13:44:12;23.90;99.90
19610;DHT22;9952;47.122;-1.638;2022-10-16T13:49:03;24.00;99.90
19610;DHT22;9952;47.122;-1.638;2022-10-16T13:53:45;23.90;99.90
19610;DHT22;9952;47.122;-1.638;2022-10-16T13:58:26;23.90;99.90
19610;DHT22;9952;47.122;-1.638;2022-10-16T14:03:13;23.80;99.90
19610;DHT22;9952;47.122;-1.638;2022-10-16T14:07:58;23.90;99.90
19610;DHT22;9952;47.122;-1.638;2022-10-16T14:12:39;23.90;99.90
19610;DHT22;9952;47.122;-1.638;2022-10-16T14:17:28;23.90;99.90
19610;DHT22;9952;47.122;-1.638;2022-10-16T14:22:34;23.90;99.90
19610;DHT22;9952;47.122;-1.638;2022-10-16T14:27:29;23.70;99.90
19610;DHT22;9952;47.122;-1.638;2022-10-16T14:32:22;23.60;99.90
19610;DHT22;9952;47.122;-1.638;2022-10-16T14:42:01;23.50;99.90
19610;DHT22;9952;47.122;-1.638;2022-10-16T14:46:45;23.50;99.90
19610;DHT22;9952;47.122;-1.638;2022-10-16T14:51:44;23.50;99.90
19610;DHT22;9952;47.122;-1.638;2022-10-16T14:56:30;23.50;99.90
19610;DHT22;9952;47.122;-1.638;2022-10-16T15:01:15;23.40;99.90
19610;DHT22;9952;47.122;-1.638;2022-10-16T15:05:56;23.40;99.90
19610;DHT22;9952;47.122;-1.638;2022-10-16T15:10:48;23.40;99.90
19610;DHT22;9952;47.122;-1.638;2022-10-16T15:15:45;23.30;99.90
19610;DHT22;9952;47.122;-1.638;2022-10-16T15:20:28;23.30;99.90
19610;DHT22;9952;47.122;-1.638;2022-10-16T15:30:07;23.10;99.90
19610;DHT22;9952;47.122;-1.638;2022-10-16T15:34:50;23.10;99.90
19610;DHT22;9952;47.122;-1.638;2022-10-16T15:39:34;23.00;99.90
19610;DHT22;9952;47.122;-1.638;2022-10-16T15:44:18;22.90;99.90
19610;DHT22;9952;47.122;-1.638;2022-10-16T15:49:00;22.70;99.90
19610;DHT22;9952;47.122;-1.638;2022-10-16T15:53:41;22.60;99.90
19610;DHT22;9952;47.122;-1.638;2022-10-16T15:58:22;22.50;99.90
19610;DHT22;9952;47.122;-1.638;2022-10-16T16:03:04;22.40;99.90
19610;DHT22;9952;47.122;-1.638;2022-10-16T16:07:48;22.30;99.90
19610;DHT22;9952;47.122;-1.638;2022-10-16T16:12:29;22.20;99.90
19610;DHT22;9952;47.122;-1.638;2022-10-16T16:17:11;22.00;99.90
19610;DHT22;9952;47.122;-1.638;2022-10-16T16:21:54;21.90;99.90
19610;DHT22;9952;47.122;-1.638;2022-10-16T16:26:36;21.80;99.90
19610;DHT22;9952;47.122;-1.638;2022-10-16T16:31:20;21.80;99.90
19610;DHT22;9952;47.122;-1.638;2022-10-16T16:36:04;21.90;99.90
19610;DHT22;9952;47.122;-1.638;2022-10-16T16:40:46;22.00;99.90
19610;DHT22;9952;47.122;-1.638;2022-10-16T16:45:27;22.10;99.90
19610;DHT22;9952;47.122;-1.638;2022-10-16T16:50:08;22.10;99.90
19610;DHT22;9952;47.122;-1.638;2022-10-16T16:54:49;22.10;99.90
19610;DHT22;9952;47.122;-1.638;2022-10-16T16:59:32;22.10;99.90
19610;DHT22;9952;47.122;-1.638;2022-10-16T17:04:16;22.00;99.90
19610;DHT22;9952;47.122;-1.638;2022-10-16T17:08:57;21.90;99.90
19610;DHT22;9952;47.122;-1.638;2022-10-16T17:13:38;21.80;99.90
19610;DHT22;9952;47.122;-1.638;2022-10-16T17:18:21;21.70;99.90
19610;DHT22;9952;47.122;-1.638;2022-10-16T17:23:02;21.60;99.90
19610;DHT22;9952;47.122;-1.638;2022-10-16T17:27:46;21.40;99.90
19610;DHT22;9952;47.122;-1.638;2022-10-16T17:32:27;21.30;99.90
19610;DHT22;9952;47.122;-1.638;2022-10-16T17:37:08;21.20;99.90
19610;DHT22;9952;47.122;-1.638;2022-10-16T17:41:49;21.10;99.90
19610;DHT22;9952;47.122;-1.638;2022-10-16T17:46:36;20.90;99.90
19610;DHT22;9952;47.122;-1.638;2022-10-16T17:51:23;20.80;99.90
19610;DHT22;9952;47.122;-1.638;2022-10-16T17:56:12;20.70;99.90
19610;DHT22;9952;47.122;-1.638;2022-10-16T18:00:54;20.60;99.90
19610;DHT22;9952;47.122;-1.638;2022-10-16T18:05:37;20.50;99.90
19610;DHT22;9952;47.122;-1.638;2022-10-16T18:10:18;20.40;99.90
19610;DHT22;9952;47.122;-1.638;2022-10-16T18:14:58;20.30;99.90
19610;DHT22;9952;47.122;-1.638;2022-10-16T18:19:39;20.20;99.90
19610;DHT22;9952;47.122;-1.638;2022-10-16T18:24:21;20.10;99.90
19610;DHT22;9952;47.122;-1.638;2022-10-16T18:29:06;19.90;99.90
19610;DHT22;9952;47.122;-1.638;2022-10-16T18:33:47;19.70;99.90
19610;DHT22;9952;47.122;-1.638;2022-10-16T18:38:30;19.50;99.90
19610;DHT22;9952;47.122;-1.638;2022-10-16T18:43:11;19.40;99.90
19610;DHT22;9952;47.122;-1.638;2022-10-16T18:47:52;19.20;99.90
19610;DHT22;9952;47.122;-1.638;2022-10-16T18:52:33;19.00;99.90
19610;DHT22;9952;47.122;-1.638;2022-10-16T18:57:13;18.80;99.90
19610;DHT22;9952;47.122;-1.638;2022-10-16T19:01:54;18.70;99.90
19610;DHT22;9952;47.122;-1.638;2022-10-16T19:06:37;18.60;99.90
19610;DHT22;9952;47.122;-1.638;2022-10-16T19:11:21;18.40;99.90
19610;DHT22;9952;47.122;-1.638;2022-10-16T19:16:03;18.30;99.90
19610;DHT22;9952;47.122;-1.638;2022-10-16T19:20:48;18.10;99.90
19610;DHT22;9952;47.122;-1.638;2022-10-16T19:25:29;17.90;99.90
19610;DHT22;9952;47.122;-1.638;2022-10-16T19:30:10;17.90;99.90
19610;DHT22;9952;47.122;-1.638;2022-10-16T19:34:50;17.80;99.90
19610;DHT22;9952;47.122;-1.638;2022-10-16T19:39:31;17.70;99.90
19610;DHT22;9952;47.122;-1.638;2022-10-16T19:44:14;17.60;99.90
19610;DHT22;9952;47.122;-1.638;2022-10-16T19:48:57;17.50;99.90
19610;DHT22;9952;47.122;-1.638;2022-10-16T19:53:38;17.40;99.90
19610;DHT22;9952;47.122;-1.638;2022-10-16T19:58:19;17.30;99.90
19610;DHT22;9952;47.122;-1.638;2022-10-16T20:03:00;17.20;99.90
19610;DHT22;9952;47.122;-1.638;2022-10-16T20:07:43;17.00;99.90
19610;DHT22;9952;47.122;-1.638;2022-10-16T20:12:23;17.00;99.90
19610;DHT22;9952;47.122;-1.638;2022-10-16T20:17:04;17.00;99.90
19610;DHT22;9952;47.122;-1.638;2022-10-16T20:21:45;17.00;99.90
19610;DHT22;9952;47.122;-1.638;2022-10-16T20:26:26;17.00;99.90
19610;DHT22;9952;47.122;-1.638;2022-10-16T20:31:16;17.00;99.90
19610;DHT22;9952;47.122;-1.638;2022-10-16T20:36:00;16.90;99.90
19610;DHT22;9952;47.122;-1.638;2022-10-16T20:40:43;16.90;99.90
19610;DHT22;9952;47.122;-1.638;2022-10-16T20:45:24;16.90;99.90
19610;DHT22;9952;47.122;-1.638;2022-10-16T20:50:05;16.90;99.90
19610;DHT22;9952;47.122;-1.638;2022-10-16T20:54:46;16.80;99.90
19610;DHT22;9952;47.122;-1.638;2022-10-16T20:59:26;16.80;99.90
19610;DHT22;9952;47.122;-1.638;2022-10-16T21:04:07;16.80;99.90
19610;DHT22;9952;47.122;-1.638;2022-10-16T21:08:49;16.80;99.90
19610;DHT22;9952;47.122;-1.638;2022-10-16T21:13:29;16.90;99.90
19610;DHT22;9952;47.122;-1.638;2022-10-16T21:18:10;16.90;99.90
19610;DHT22;9952;47.122;-1.638;2022-10-16T21:22:52;17.00;99.90
19610;DHT22;9952;47.122;-1.638;2022-10-16T21:27:39;17.00;99.90
19610;DHT22;9952;47.122;-1.638;2022-10-16T21:32:20;17.00;99.90
19610;DHT22;9952;47.122;-1.638;2022-10-16T21:37:01;17.10;99.90
19610;DHT22;9952;47.122;-1.638;2022-10-16T21:41:44;17.00;99.90
19610;DHT22;9952;47.122;-1.638;2022-10-16T21:46:28;17.10;99.90
19610;DHT22;9952;47.122;-1.638;2022-10-16T21:51:10;17.10;99.90
19610;DHT22;9952;47.122;-1.638;2022-10-16T21:55:51;17.00;99.90
19610;DHT22;9952;47.122;-1.638;2022-10-16T22:00:32;16.90;99.90
19610;DHT22;9952;47.122;-1.638;2022-10-16T22:05:13;16.70;99.90
19610;DHT22;9952;47.122;-1.638;2022-10-16T22:09:54;16.60;99.90
19610;DHT22;9952;47.122;-1.638;2022-10-16T22:14:34;16.50;99.90
19610;DHT22;9952;47.122;-1.638;2022-10-16T22:19:18;16.40;99.90
19610;DHT22;9952;47.122;-1.638;2022-10-16T22:24:00;16.30;99.90
19610;DHT22;9952;47.122;-1.638;2022-10-16T22:28:41;16.20;99.90
19610;DHT22;9952;47.122;-1.638;2022-10-16T22:33:22;16.10;99.90
19610;DHT22;9952;47.122;-1.638;2022-10-16T22:38:03;16.10;99.90
19610;DHT22;9952;47.122;-1.638;2022-10-16T22:42:44;16.00;99.90
19610;DHT22;9952;47.122;-1.638;2022-10-16T22:47:25;16.00;99.90
19610;DHT22;9952;47.122;-1.638;2022-10-16T22:52:06;15.90;99.90
19610;DHT22;9952;47.122;-1.638;2022-10-16T22:56:46;15.80;99.90
19610;DHT22;9952;47.122;-1.638;2022-10-16T23:01:30;15.80;99.90
19610;DHT22;9952;47.122;-1.638;2022-10-16T23:06:11;15.80;99.90
19610;DHT22;9952;47.122;-1.638;2022-10-16T23:10:52;15.70;99.90
19610;DHT22;9952;47.122;-1.638;2022-10-16T23:15:33;15.70;99.90
19610;DHT22;9952;47.122;-1.638;2022-10-16T23:20:14;15.80;99.90
19610;DHT22;9952;47.122;-1.638;2022-10-16T23:24:54;15.70;99.90
19610;DHT22;9952;47.122;-1.638;2022-10-16T23:29:35;15.60;99.90
19610;DHT22;9952;47.122;-1.638;2022-10-16T23:34:16;15.70;99.90
19610;DHT22;9952;47.122;-1.638;2022-10-16T23:38:57;15.60;99.90
19610;DHT22;9952;47.122;-1.638;2022-10-16T23:43:38;15.60;99.90
19610;DHT22;9952;47.122;-1.638;2022-10-16T23:48:19;15.50;99.90
19610;DHT22;9952;47.122;-1.638;2022-10-16T23:53:00;15.40;99.90
19610;DHT22;9952;47.122;-1.638;2022-10-16T23:57:40;15.40;99.90
